MSC Vigo — A8ZV8 — position and weather

sailwx.info

Track history (hours):
 
Tides and Currents Weather Stations Pressure Air Temp Water Temp Dewpoint Dewpoint Depression Visibility Wind Speed Wind Dir Waves Ship Positions

MSC Vigo

Last reported at 2014-Oct-30 22:19 UTC. Time now 2014-Oct-31 19:24 UTC.
Position S 34°50' W 057°25'.

Length 270 m; draft 9.9 m.

Type: Ship (hazmat cat A). MMSI: 636092276.

Date/timePositionNaut miles runAvg speedWind from/ knotsBaromVisibWave heightAir tempDewpointWater temp
2014-Oct-30 22:19S 34°50' W 057°25'4 1.5
2014-Oct-30 19:17S 34°47' W 057°30'1013.8
2014-Oct-30 18:33S 34°44' W 057°42'1313.0
2014-Oct-30 17:33S 34°41' W 057°57'1413.9
2014-Oct-30 16:33S 34°37' W 058°13'8 7.6
2014-Oct-30 15:33S 34°35' W 058°22'0 0.2
2014-Oct-30 14:22S 34°35' W 058°22'0 0.0
2014-Oct-30 12:22S 34°35' W 058°22'0 0.0
2014-Oct-30 09:04S 34°35' W 058°22'  
2014-Oct-27 12:00S 28°06' W 048°18'2517.1 030 / 141019.110.8 0.524.019.6
2014-Oct-27 10:30S 27°43' W 048°06'23518.1
2014-Oct-26 21:33S 24°07' W 046°23'1010.3
2014-Oct-26 20:33S 23°59' W 046°17'5 1.5
2014-Oct-26 17:26S 23°55' W 046°21'0 0.0
2014-Oct-26 05:08S 23°55' W 046°21'0 0.0
2014-Oct-26 04:14S 23°55' W 046°21'0 0.0
2014-Oct-26 03:32S 23°55' W 046°21'1 0.3
2014-Oct-26 01:33S 23°55' W 046°20'5 4.5
2014-Oct-26 00:33S 23°60' W 046°20'8 1.1
2014-Oct-25 17:26S 24°08' W 046°20'1 0.2
2014-Oct-25 14:10S 24°07' W 046°19'711.8
2014-Oct-25 13:33S 24°07' W 046°11'  
Track history (hours):
 
Tides and Currents Weather Stations Pressure Air Temp Water Temp Dewpoint Dewpoint Depression Visibility Wind Speed Wind Dir Waves Ship Positions

MSC Vigo

Last reported at 2014-Oct-30 22:19 UTC. Time now 2014-Oct-31 19:24 UTC.
Position S 34°50' W 057°25'.

Length 270 m; draft 9.9 m.

Type: Ship (hazmat cat A). MMSI: 636092276.

Date/timePositionNaut miles runAvg speedWind from/ knotsBaromVisibWave heightAir tempDewpointWater temp
2014-Oct-30 22:19S 34°50' W 057°25'4 1.5
2014-Oct-30 19:17S 34°47' W 057°30'1013.8
2014-Oct-30 18:33S 34°44' W 057°42'1313.0
2014-Oct-30 17:33S 34°41' W 057°57'1413.9
2014-Oct-30 16:33S 34°37' W 058°13'8 7.6
2014-Oct-30 15:33S 34°35' W 058°22'0 0.2
2014-Oct-30 14:22S 34°35' W 058°22'0 0.0
2014-Oct-30 12:22S 34°35' W 058°22'0 0.0
2014-Oct-30 09:04S 34°35' W 058°22'  
2014-Oct-27 12:00S 28°06' W 048°18'2517.1 030 / 141019.110.8 0.524.019.6
2014-Oct-27 10:30S 27°43' W 048°06'23518.1
2014-Oct-26 21:33S 24°07' W 046°23'1010.3
2014-Oct-26 20:33S 23°59' W 046°17'5 1.5
2014-Oct-26 17:26S 23°55' W 046°21'0 0.0
2014-Oct-26 05:08S 23°55' W 046°21'0 0.0
2014-Oct-26 04:14S 23°55' W 046°21'0 0.0
2014-Oct-26 03:32S 23°55' W 046°21'1 0.3
2014-Oct-26 01:33S 23°55' W 046°20'5 4.5
2014-Oct-26 00:33S 23°60' W 046°20'8 1.1
2014-Oct-25 17:26S 24°08' W 046°20'1 0.2
2014-Oct-25 14:10S 24°07' W 046°19'711.8
2014-Oct-25 13:33S 24°07' W 046°11'  

Dump ship's entire track history